Time;durP1;ratioP1;P1;durP2;ratioP2;P2;SDS_P1;SDS_P2;PMS_P1;PMS_P2;Temp;Humidity;BMP_temperature;BMP_pressure;BME280_temperature;BME280_humidity;BME280_pressure;Samples;Min_cycle;Max_cycle;Signal;HPM_P1;HPM_P2
2022/12/23 00:01:07;;;;;;;;;;;7.60;99.90;;;;;;5001623;28;199372;-70
2022/12/23 00:03:34;;;;;;;;;;;7.60;99.90;;;;;;5040024;28;19924;-71
2022/12/23 00:06:00;;;;;;;;;;;7.60;99.90;;;;;;4988534;28;206830;-71
2022/12/23 00:08:26;;;;;;;;;;;7.60;99.90;;;;;;5035896;28;20321;-71
2022/12/23 00:10:53;;;;;;;;;;;7.60;99.90;;;;;;5008964;28;191613;-72
2022/12/23 00:16:12;;;;;;;;;;;7.60;99.90;;;;;;4981656;28;171010;-71
2022/12/23 00:18:38;;;;;;;;;;;7.60;99.90;;;;;;5022366;28;19920;-71
2022/12/23 00:21:05;;;;;;;;;;;7.60;99.90;;;;;;4971435;28;205817;-70
2022/12/23 00:23:32;;;;;;;;;;;7.60;99.90;;;;;;5021746;28;19932;-71
2022/12/23 00:25:58;;;;;;;;;;;7.60;99.90;;;;;;4988896;28;60059;-71
2022/12/23 00:28:25;;;;;;;;;;;7.60;99.90;;;;;;5040634;28;19921;-71
2022/12/23 00:30:51;;;;;;;;;;;7.50;99.90;;;;;;4971862;28;175426;-71
2022/12/23 00:33:19;;;;;;;;;;;7.60;99.90;;;;;;5017750;28;19921;-70
2022/12/23 00:35:46;;;;;;;;;;;7.50;99.90;;;;;;4974576;28;179358;-70
2022/12/23 00:38:12;;;;;;;;;;;7.50;99.90;;;;;;5024576;28;20317;-71
2022/12/23 00:43:23;;;;;;;;;;;7.50;99.90;;;;;;5021558;28;19921;-70
2022/12/23 00:45:48;;;;;;;;;;;7.50;99.90;;;;;;4979098;28;193156;-70
2022/12/23 00:50:59;;;;;;;;;;;7.50;99.90;;;;;;4994643;28;208672;-70
2022/12/23 00:53:25;;;;;;;;;;;7.50;99.90;;;;;;5053983;28;19939;-70
2022/12/23 00:55:51;;;;;;;;;;;7.50;99.90;;;;;;5031638;28;99614;-71
2022/12/23 00:58:18;;;;;;;;;;;7.50;99.90;;;;;;5031046;28;19930;-71
2022/12/23 01:06:14;;;;;;;;;;;7.50;99.90;;;;;;5005039;28;182834;-70
2022/12/23 01:08:40;;;;;;;;;;;7.50;99.90;;;;;;5047806;28;19931;-70
2022/12/23 01:11:07;;;;;;;;;;;7.50;99.90;;;;;;4985067;28;190403;-71
2022/12/23 01:13:33;;;;;;;;;;;7.50;99.90;;;;;;5043920;28;19932;-71
2022/12/23 01:16:01;;;;;;;;;;;7.50;99.90;;;;;;4982159;28;211313;-71
2022/12/23 01:18:27;;;;;;;;;;;7.50;99.90;;;;;;5045691;28;19924;-71
2022/12/23 01:20:53;;;;;;;;;;;7.50;99.90;;;;;;5006425;28;209357;-70
2022/12/23 01:23:19;;;;;;;;;;;7.50;99.90;;;;;;5069485;28;19920;-70
2022/12/23 01:25:46;;;;;;;;;;;7.50;99.90;;;;;;5000340;28;149555;-71
2022/12/23 01:28:13;;;;;;;;;;;7.50;99.90;;;;;;5033314;28;19944;-69
2022/12/23 01:30:39;;;;;;;;;;;7.50;99.90;;;;;;5015595;28;169077;-70
2022/12/23 01:33:05;;;;;;;;;;;7.40;99.90;;;;;;5038398;28;19930;-70
2022/12/23 01:35:30;;;;;;;;;;;7.40;99.90;;;;;;5006866;28;168965;-69
2022/12/23 01:37:56;;;;;;;;;;;7.50;99.90;;;;;;5028196;28;20203;-69
2022/12/23 01:40:22;;;;;;;;;;;7.40;99.90;;;;;;5001678;28;207298;-70
2022/12/23 01:42:48;;;;;;;;;;;7.40;99.90;;;;;;5049355;28;19928;-70
2022/12/23 01:45:17;;;;;;;;;;;7.30;99.90;;;;;;5007661;28;207217;-70
2022/12/23 01:47:59;;;;;;;;;;;7.40;99.90;;;;;;5057147;28;19971;-71
2022/12/23 01:50:30;;;;;;;;;;;7.30;99.90;;;;;;5011932;28;161008;-71
2022/12/23 01:53:07;;;;;;;;;;;7.40;99.90;;;;;;5029067;28;19929;-71
2022/12/23 01:56:05;;;;;;;;;;;7.30;99.90;;;;;;5000724;28;189320;-72
2022/12/23 01:58:32;;;;;;;;;;;7.40;99.90;;;;;;5025772;28;19924;-71
2022/12/23 02:03:44;;;;;;;;;;;7.30;99.90;;;;;;5035894;28;20405;-71
2022/12/23 02:11:59;;;;;;;;;;;7.30;99.90;;;;;;4916350;28;55397;-71
2022/12/23 02:17:33;;;;;;;;;;;7.40;99.90;;;;;;4897267;28;207087;-71
2022/12/23 02:20:04;;;;;;;;;;;7.40;99.90;;;;;;4942442;28;193826;-70
2022/12/23 02:22:30;;;;;;;;;;;7.30;99.90;;;;;;4925106;28;19930;-70
2022/12/23 02:24:56;;;;;;;;;;;7.40;99.90;;;;;;4947198;28;208157;-70
2022/12/23 02:27:32;;;;;;;;;;;7.40;99.90;;;;;;4931072;28;88371;-71
2022/12/23 02:30:06;;;;;;;;;;;7.40;99.90;;;;;;4946417;28;191610;-71
2022/12/23 02:32:32;;;;;;;;;;;7.40;99.90;;;;;;4904867;28;19934;-70
2022/12/23 02:34:58;;;;;;;;;;;7.40;99.90;;;;;;4969524;28;51185;-70
2022/12/23 02:37:36;;;;;;;;;;;7.30;99.90;;;;;;4968058;28;20449;-71
2022/12/23 02:40:01;;;;;;;;;;;7.30;99.90;;;;;;4968028;28;175594;-71
2022/12/23 02:42:34;;;;;;;;;;;7.40;99.90;;;;;;4963471;28;19933;-71
2022/12/23 02:45:02;;;;;;;;;;;7.40;99.90;;;;;;4969863;28;153331;-71
2022/12/23 02:47:35;;;;;;;;;;;7.40;99.90;;;;;;4994378;28;19935;-71
2022/12/23 02:50:05;;;;;;;;;;;7.40;99.90;;;;;;5031954;28;206447;-71
2022/12/23 02:52:32;;;;;;;;;;;7.40;99.90;;;;;;5020036;28;19925;-71
2022/12/23 02:55:08;;;;;;;;;;;7.40;99.90;;;;;;5040158;28;205749;-71
2022/12/23 02:57:40;;;;;;;;;;;7.40;99.90;;;;;;4995349;28;20281;-71
2022/12/23 03:00:06;;;;;;;;;;;7.30;99.90;;;;;;5003519;28;210294;-71
2022/12/23 03:02:34;;;;;;;;;;;7.40;99.90;;;;;;5026450;28;19932;-71
2022/12/23 03:05:00;;;;;;;;;;;7.40;99.90;;;;;;5029307;28;208456;-71
2022/12/23 03:07:36;;;;;;;;;;;7.40;99.90;;;;;;5012062;28;20400;-71
2022/12/23 03:10:02;;;;;;;;;;;7.30;99.90;;;;;;5016133;28;208479;-71
2022/12/23 03:12:31;;;;;;;;;;;7.40;99.90;;;;;;5024954;28;20396;-71
2022/12/23 03:15:09;;;;;;;;;;;7.30;99.90;;;;;;5045455;28;213775;-71
2022/12/23 03:17:54;;;;;;;;;;;7.30;99.90;;;;;;4996708;28;19921;-71
2022/12/23 03:20:24;;;;;;;;;;;7.40;99.90;;;;;;5039395;28;210006;-71
2022/12/23 03:22:50;;;;;;;;;;;7.40;99.90;;;;;;5044543;28;19929;-71
2022/12/23 03:25:20;;;;;;;;;;;7.40;99.90;;;;;;5000654;28;212286;-71
2022/12/23 03:28:01;;;;;;;;;;;7.30;99.90;;;;;;5026594;28;19925;-71
2022/12/23 03:30:28;;;;;;;;;;;7.40;99.90;;;;;;5003335;28;187577;-71
2022/12/23 03:32:57;;;;;;;;;;;7.30;99.90;;;;;;5067487;28;20302;-71
2022/12/23 03:35:26;;;;;;;;;;;7.30;99.90;;;;;;5011174;28;167916;-71
2022/12/23 03:37:53;;;;;;;;;;;7.30;99.90;;;;;;5072709;28;19929;-71
2022/12/23 03:40:22;;;;;;;;;;;7.30;99.90;;;;;;5037730;28;186298;-71
2022/12/23 03:42:53;;;;;;;;;;;7.30;99.90;;;;;;5032294;28;19935;-71
2022/12/23 03:45:39;;;;;;;;;;;7.30;99.90;;;;;;5002415;28;206690;-71
2022/12/23 03:48:08;;;;;;;;;;;7.30;99.90;;;;;;5020159;28;19927;-71
2022/12/23 03:50:35;;;;;;;;;;;7.30;99.90;;;;;;5011242;28;211327;-71
2022/12/23 03:53:04;;;;;;;;;;;7.20;99.90;;;;;;5046756;28;19925;-71
2022/12/23 03:55:34;;;;;;;;;;;7.20;99.90;;;;;;5013489;28;164840;-70
2022/12/23 03:58:09;;;;;;;;;;;7.20;99.90;;;;;;5051993;28;19928;-70
2022/12/23 04:00:39;;;;;;;;;;;7.20;99.90;;;;;;5002914;28;170102;-71
2022/12/23 04:03:28;;;;;;;;;;;7.10;99.90;;;;;;5047355;28;19950;-71
2022/12/23 04:05:58;;;;;;;;;;;7.10;99.90;;;;;;4982993;28;186385;-71
2022/12/23 04:08:34;;;;;;;;;;;7.10;99.90;;;;;;5062697;28;20405;-72
2022/12/23 04:11:01;;;;;;;;;;;7.10;99.90;;;;;;4998504;28;207005;-71
2022/12/23 04:13:27;;;;;;;;;;;7.20;99.90;;;;;;5049684;28;19929;-71
2022/12/23 04:15:53;;;;;;;;;;;7.10;99.90;;;;;;5004237;28;210776;-71
2022/12/23 04:18:19;;;;;;;;;;;7.10;99.90;;;;;;5036200;28;19943;-71
2022/12/23 04:20:45;;;;;;;;;;;7.10;99.90;;;;;;5003879;28;207967;-72
2022/12/23 04:23:11;;;;;;;;;;;7.10;99.90;;;;;;5040973;28;19989;-71
2022/12/23 04:25:37;;;;;;;;;;;7.10;99.90;;;;;;5019768;28;206098;-72
2022/12/23 04:28:03;;;;;;;;;;;7.10;99.90;;;;;;5069668;28;19920;-70
2022/12/23 04:30:30;;;;;;;;;;;7.10;99.90;;;;;;5003975;28;201864;-70
2022/12/23 04:32:56;;;;;;;;;;;7.10;99.90;;;;;;5032656;28;20400;-71
2022/12/23 04:35:22;;;;;;;;;;;7.10;99.90;;;;;;5034479;28;207168;-71
2022/12/23 04:37:48;;;;;;;;;;;7.10;99.90;;;;;;5040863;28;20385;-71
2022/12/23 04:40:14;;;;;;;;;;;7.10;99.90;;;;;;5030644;28;209949;-72
2022/12/23 04:42:40;;;;;;;;;;;7.10;99.90;;;;;;5036633;28;20333;-71
2022/12/23 04:45:06;;;;;;;;;;;7.10;99.90;;;;;;5008121;28;219680;-72
2022/12/23 04:47:32;;;;;;;;;;;7.10;99.90;;;;;;5034867;28;19931;-72
2022/12/23 04:49:58;;;;;;;;;;;7.10;99.90;;;;;;5044467;28;207904;-72
2022/12/23 04:52:24;;;;;;;;;;;7.10;99.90;;;;;;5019392;28;19924;-71
2022/12/23 04:54:50;;;;;;;;;;;7.10;99.90;;;;;;5057027;28;19970;-71
2022/12/23 04:57:16;;;;;;;;;;;7.10;99.90;;;;;;4985087;28;208617;-71
2022/12/23 04:59:42;;;;;;;;;;;7.10;99.90;;;;;;5056791;28;19924;-71
2022/12/23 05:02:08;;;;;;;;;;;7.00;99.90;;;;;;5004060;28;217718;-72
2022/12/23 05:04:34;;;;;;;;;;;7.00;99.90;;;;;;5066492;28;19924;-72
2022/12/23 05:07:00;;;;;;;;;;;7.00;99.90;;;;;;4985041;28;209114;-71
2022/12/23 05:09:26;;;;;;;;;;;7.10;99.90;;;;;;5055762;28;19928;-71
2022/12/23 05:11:52;;;;;;;;;;;7.00;99.90;;;;;;5017391;28;132015;-71
2022/12/23 05:14:18;;;;;;;;;;;7.00;99.90;;;;;;5083218;28;19936;-72
2022/12/23 05:16:44;;;;;;;;;;;7.00;99.90;;;;;;4995312;28;207755;-71
2022/12/23 05:19:10;;;;;;;;;;;7.00;99.90;;;;;;5048501;28;19978;-72
2022/12/23 05:21:36;;;;;;;;;;;7.00;99.90;;;;;;4995624;28;176396;-72
2022/12/23 05:24:02;;;;;;;;;;;7.00;99.90;;;;;;5055124;28;20372;-71
2022/12/23 05:26:28;;;;;;;;;;;7.00;99.90;;;;;;4966631;28;206821;-71
2022/12/23 05:28:54;;;;;;;;;;;7.00;99.90;;;;;;5049752;28;20287;-72
2022/12/23 05:31:20;;;;;;;;;;;7.00;99.90;;;;;;5012084;28;207009;-71
2022/12/23 05:33:46;;;;;;;;;;;7.00;99.90;;;;;;5040470;28;19925;-71
2022/12/23 05:36:12;;;;;;;;;;;7.00;99.90;;;;;;5008616;28;208005;-73
2022/12/23 05:38:38;;;;;;;;;;;7.00;99.90;;;;;;5059718;28;19929;-71
2022/12/23 05:41:04;;;;;;;;;;;7.00;99.90;;;;;;5007425;28;139600;-71
2022/12/23 05:43:30;;;;;;;;;;;7.00;99.90;;;;;;5049582;28;20313;-72
2022/12/23 05:45:56;;;;;;;;;;;7.00;99.90;;;;;;5011343;28;209175;-71
2022/12/23 05:48:23;;;;;;;;;;;7.00;99.90;;;;;;5053584;28;20301;-70
2022/12/23 05:50:49;;;;;;;;;;;7.00;99.90;;;;;;5025555;28;214416;-70
2022/12/23 05:53:16;;;;;;;;;;;7.00;99.90;;;;;;5053887;28;19921;-71
2022/12/23 05:55:42;;;;;;;;;;;7.00;99.90;;;;;;5024180;28;209850;-71
2022/12/23 05:58:08;;;;;;;;;;;7.00;99.90;;;;;;5045802;28;19933;-71
2022/12/23 06:00:33;;;;;;;;;;;7.00;99.90;;;;;;4991155;28;162256;-71
2022/12/23 06:03:00;;;;;;;;;;;7.00;99.90;;;;;;5039953;28;19928;-71
2022/12/23 06:05:26;;;;;;;;;;;7.00;99.90;;;;;;5027212;28;158029;-71
2022/12/23 06:07:52;;;;;;;;;;;7.00;99.90;;;;;;5043357;28;19920;-71
2022/12/23 06:10:18;;;;;;;;;;;6.90;99.90;;;;;;5006462;28;180920;-71
2022/12/23 06:12:44;;;;;;;;;;;7.00;99.90;;;;;;5062322;28;19921;-71
2022/12/23 06:15:10;;;;;;;;;;;7.00;99.90;;;;;;5003340;28;214245;-71
2022/12/23 06:17:36;;;;;;;;;;;6.90;99.90;;;;;;5028615;28;20038;-71
2022/12/23 06:20:02;;;;;;;;;;;7.00;99.90;;;;;;5019454;28;208790;-72
2022/12/23 06:22:28;;;;;;;;;;;7.00;99.90;;;;;;5044846;28;19933;-72
2022/12/23 06:24:54;;;;;;;;;;;7.00;99.90;;;;;;5044093;28;208030;-72
2022/12/23 06:27:20;;;;;;;;;;;6.90;99.90;;;;;;4990026;28;52620;-72
2022/12/23 06:29:46;;;;;;;;;;;6.90;99.90;;;;;;5056247;28;19928;-72
2022/12/23 06:32:13;;;;;;;;;;;6.90;99.90;;;;;;4981231;28;207919;-72
2022/12/23 06:34:39;;;;;;;;;;;6.90;99.90;;;;;;5058584;28;20294;-72
2022/12/23 06:37:05;;;;;;;;;;;6.90;99.90;;;;;;4997950;28;207778;-72
2022/12/23 06:39:30;;;;;;;;;;;6.90;99.90;;;;;;5052474;28;19935;-72
2022/12/23 06:41:56;;;;;;;;;;;6.80;99.90;;;;;;5021434;28;207592;-72
2022/12/23 06:44:22;;;;;;;;;;;6.80;99.90;;;;;;5071593;28;19925;-72
2022/12/23 06:46:48;;;;;;;;;;;6.80;99.90;;;;;;5010102;28;207636;-72
2022/12/23 06:49:14;;;;;;;;;;;6.80;99.90;;;;;;5039375;28;20351;-72
2022/12/23 06:51:40;;;;;;;;;;;6.70;99.90;;;;;;4994992;28;207956;-72
2022/12/23 06:54:08;;;;;;;;;;;6.70;99.90;;;;;;5070728;28;19924;-71
2022/12/23 06:56:34;;;;;;;;;;;6.70;99.90;;;;;;4997327;28;209831;-72
2022/12/23 06:59:00;;;;;;;;;;;6.70;99.90;;;;;;5047688;28;19920;-72
2022/12/23 07:01:26;;;;;;;;;;;6.70;99.90;;;;;;4991411;28;207465;-72
2022/12/23 07:03:52;;;;;;;;;;;6.70;99.90;;;;;;5051165;28;19988;-72
2022/12/23 07:06:18;;;;;;;;;;;6.70;99.90;;;;;;5009745;28;193309;-72
2022/12/23 07:08:44;;;;;;;;;;;6.70;99.90;;;;;;5048692;28;19928;-72
2022/12/23 07:11:10;;;;;;;;;;;6.60;99.90;;;;;;5002396;28;206677;-70
2022/12/23 07:13:36;;;;;;;;;;;6.60;99.90;;;;;;5053612;28;19929;-70
2022/12/23 07:16:06;;;;;;;;;;;6.60;99.90;;;;;;5015608;28;215862;-71
2022/12/23 07:18:32;;;;;;;;;;;6.60;99.90;;;;;;5058574;28;19924;-71
2022/12/23 07:20:59;;;;;;;;;;;6.60;99.90;;;;;;5003650;28;130835;-71
2022/12/23 07:23:25;;;;;;;;;;;6.60;99.90;;;;;;5043385;28;19928;-71
2022/12/23 07:25:51;;;;;;;;;;;6.60;99.90;;;;;;5013741;28;116660;-70
2022/12/23 07:28:17;;;;;;;;;;;6.60;99.90;;;;;;5059585;28;20390;-69
2022/12/23 07:30:43;;;;;;;;;;;6.60;99.90;;;;;;5005922;28;207075;-70
2022/12/23 07:33:09;;;;;;;;;;;6.60;99.90;;;;;;5048052;28;19939;-70
2022/12/23 07:35:35;;;;;;;;;;;6.60;99.90;;;;;;5037794;28;215325;-69
2022/12/23 07:38:01;;;;;;;;;;;6.60;99.90;;;;;;5059381;28;19924;-70
2022/12/23 07:40:27;;;;;;;;;;;6.60;99.90;;;;;;5029163;28;206295;-69
2022/12/23 07:42:54;;;;;;;;;;;6.60;99.90;;;;;;5049412;28;19924;-71
2022/12/23 07:45:20;;;;;;;;;;;6.60;99.90;;;;;;5014624;28;86500;-70
2022/12/23 07:47:46;;;;;;;;;;;6.60;99.90;;;;;;5045956;28;19931;-69
2022/12/23 07:50:12;;;;;;;;;;;6.60;99.90;;;;;;5005603;28;212054;-70
2022/12/23 07:52:38;;;;;;;;;;;6.60;99.90;;;;;;5038566;28;19931;-70
2022/12/23 07:55:05;;;;;;;;;;;6.60;99.90;;;;;;5005294;28;207491;-70
2022/12/23 07:57:36;;;;;;;;;;;6.60;99.90;;;;;;5043089;28;19948;-70
2022/12/23 08:00:09;;;;;;;;;;;6.60;99.90;;;;;;5013660;28;207988;-71
2022/12/23 08:02:35;;;;;;;;;;;6.60;99.90;;;;;;5033818;28;19932;-71
2022/12/23 08:05:01;;;;;;;;;;;6.60;99.90;;;;;;5025881;28;207929;-68
2022/12/23 08:07:27;;;;;;;;;;;6.60;99.90;;;;;;4998729;28;19924;-70
2022/12/23 08:09:53;;;;;;;;;;;6.60;99.90;;;;;;5047220;28;209470;-68
2022/12/23 08:12:19;;;;;;;;;;;6.60;99.90;;;;;;5014886;28;176966;-70
2022/12/23 08:14:47;;;;;;;;;;;6.70;99.90;;;;;;5053044;28;19924;-70
2022/12/23 08:17:13;;;;;;;;;;;6.70;99.90;;;;;;4984884;28;207862;-69
2022/12/23 08:19:39;;;;;;;;;;;6.70;99.90;;;;;;5041444;28;19929;-70
2022/12/23 08:22:05;;;;;;;;;;;6.70;99.90;;;;;;4987221;28;211667;-69
2022/12/23 08:24:31;;;;;;;;;;;6.70;99.90;;;;;;5050621;28;19924;-70
2022/12/23 08:26:57;;;;;;;;;;;6.80;99.90;;;;;;4994245;28;203073;-70
2022/12/23 08:29:23;;;;;;;;;;;6.80;99.90;;;;;;5053576;28;20545;-71
2022/12/23 08:31:49;;;;;;;;;;;6.80;99.90;;;;;;4994053;28;190543;-71
2022/12/23 08:34:15;;;;;;;;;;;6.80;99.90;;;;;;5069289;28;19931;-71
2022/12/23 08:36:41;;;;;;;;;;;6.80;99.90;;;;;;4990175;28;179386;-71
2022/12/23 08:39:08;;;;;;;;;;;6.80;99.90;;;;;;5036370;28;20409;-70
2022/12/23 08:41:36;;;;;;;;;;;6.80;99.90;;;;;;4993626;28;202461;-70
2022/12/23 08:44:02;;;;;;;;;;;6.80;99.90;;;;;;5044931;28;19935;-70
2022/12/23 08:46:28;;;;;;;;;;;6.80;99.90;;;;;;4997918;28;198746;-70
2022/12/23 08:48:54;;;;;;;;;;;6.80;99.90;;;;;;5053729;28;19921;-69
2022/12/23 08:51:21;;;;;;;;;;;6.80;99.90;;;;;;5012802;28;207816;-71
2022/12/23 08:53:47;;;;;;;;;;;6.80;99.90;;;;;;5074177;28;19929;-71
2022/12/23 08:56:15;;;;;;;;;;;6.80;99.90;;;;;;5025527;28;142852;-70
2022/12/23 08:58:42;;;;;;;;;;;6.80;99.90;;;;;;5075309;28;19940;-70
2022/12/23 09:01:10;;;;;;;;;;;6.90;99.90;;;;;;5013493;28;121675;-70
2022/12/23 09:03:36;;;;;;;;;;;6.90;99.90;;;;;;5062191;28;20317;-70
2022/12/23 09:06:04;;;;;;;;;;;6.90;99.90;;;;;;5004320;28;174808;-71
2022/12/23 09:08:30;;;;;;;;;;;7.00;99.90;;;;;;5055386;28;19937;-71
2022/12/23 09:10:56;;;;;;;;;;;6.90;99.90;;;;;;5003669;28;215664;-71
2022/12/23 09:13:22;;;;;;;;;;;7.00;99.90;;;;;;5038413;28;19931;-70
2022/12/23 09:15:48;;;;;;;;;;;7.00;99.90;;;;;;5011369;28;208169;-70
2022/12/23 09:18:14;;;;;;;;;;;7.00;99.90;;;;;;5037506;28;19947;-71
2022/12/23 09:20:40;;;;;;;;;;;7.00;99.90;;;;;;5023732;28;132618;-70
2022/12/23 09:23:06;;;;;;;;;;;7.10;99.90;;;;;;5047442;28;19928;-70
2022/12/23 09:25:34;;;;;;;;;;;7.00;99.90;;;;;;5006904;28;131166;-69
2022/12/23 09:27:59;;;;;;;;;;;7.10;99.90;;;;;;5030930;28;19929;-69
2022/12/23 09:30:26;;;;;;;;;;;7.10;99.90;;;;;;5004081;28;173354;-71
2022/12/23 09:32:52;;;;;;;;;;;7.10;99.90;;;;;;5042785;28;19928;-69
2022/12/23 09:35:18;;;;;;;;;;;7.20;99.90;;;;;;5011601;28;207506;-69
2022/12/23 09:37:44;;;;;;;;;;;7.20;99.90;;;;;;5057210;28;19925;-70
2022/12/23 09:40:11;;;;;;;;;;;7.20;99.90;;;;;;5001388;28;214444;-70
2022/12/23 09:42:44;;;;;;;;;;;7.20;99.90;;;;;;5041229;28;21841;-69
2022/12/23 09:45:18;;;;;;;;;;;7.30;99.90;;;;;;5006580;28;207245;-70
2022/12/23 09:47:44;;;;;;;;;;;7.30;99.90;;;;;;5056671;28;19920;-69
2022/12/23 09:50:22;;;;;;;;;;;7.40;99.90;;;;;;5008864;28;212425;-69
2022/12/23 09:52:56;;;;;;;;;;;7.40;99.90;;;;;;5037848;28;20311;-70
2022/12/23 09:55:27;;;;;;;;;;;7.50;99.90;;;;;;5009061;28;204572;-70
2022/12/23 09:57:59;;;;;;;;;;;7.50;99.90;;;;;;5048498;28;19947;-70
2022/12/23 10:00:28;;;;;;;;;;;7.60;99.90;;;;;;5006105;28;208684;-69
2022/12/23 10:03:12;;;;;;;;;;;7.60;99.90;;;;;;5050494;28;19940;-70
2022/12/23 10:05:55;;;;;;;;;;;7.70;99.90;;;;;;4995243;28;180851;-70
2022/12/23 10:08:21;;;;;;;;;;;7.60;99.90;;;;;;5059718;28;19920;-69
2022/12/23 10:10:52;;;;;;;;;;;7.60;99.90;;;;;;5005189;28;132212;-70
2022/12/23 10:13:25;;;;;;;;;;;7.60;99.90;;;;;;5037153;28;19920;-70
2022/12/23 10:15:54;;;;;;;;;;;7.60;99.90;;;;;;4996165;28;165177;-70
2022/12/23 10:18:23;;;;;;;;;;;7.70;99.90;;;;;;5033401;28;19925;-69
2022/12/23 10:20:56;;;;;;;;;;;7.60;99.90;;;;;;5007616;28;190545;-70
2022/12/23 10:23:40;;;;;;;;;;;7.70;99.90;;;;;;5052852;28;19925;-70
2022/12/23 10:26:28;;;;;;;;;;;7.70;99.90;;;;;;5006857;28;176214;-69
2022/12/23 10:28:59;;;;;;;;;;;7.80;99.90;;;;;;5058968;28;19921;-69
2022/12/23 10:31:31;;;;;;;;;;;7.70;99.90;;;;;;5005589;28;176826;-69
2022/12/23 10:34:01;;;;;;;;;;;7.70;99.90;;;;;;5051801;28;19935;-71
2022/12/23 10:36:47;;;;;;;;;;;7.70;99.90;;;;;;5015041;28;126703;-70
2022/12/23 10:39:13;;;;;;;;;;;7.60;99.90;;;;;;5000363;28;19964;-70
2022/12/23 10:41:57;;;;;;;;;;;7.60;99.90;;;;;;4971610;28;145964;-70
2022/12/23 10:44:41;;;;;;;;;;;7.60;99.90;;;;;;4985578;28;20310;-70
2022/12/23 10:47:07;;;;;;;;;;;7.60;99.90;;;;;;4938008;28;160966;-70
2022/12/23 10:49:42;;;;;;;;;;;7.60;99.90;;;;;;5006064;28;19928;-70
2022/12/23 10:52:17;;;;;;;;;;;7.60;99.90;;;;;;4966886;28;206717;-70
2022/12/23 10:54:44;;;;;;;;;;;7.60;99.90;;;;;;5006450;28;19921;-69
2022/12/23 10:57:10;;;;;;;;;;;7.60;99.90;;;;;;4971152;28;191421;-69
2022/12/23 10:59:36;;;;;;;;;;;7.70;99.90;;;;;;5023494;28;20031;-70
2022/12/23 11:02:11;;;;;;;;;;;7.70;99.90;;;;;;4968241;28;193221;-71
2022/12/23 11:04:39;;;;;;;;;;;7.70;99.90;;;;;;5006538;28;19933;-70
2022/12/23 11:07:07;;;;;;;;;;;7.70;99.90;;;;;;4935258;28;121075;-71
2022/12/23 11:09:39;;;;;;;;;;;7.80;99.90;;;;;;4994722;28;19936;-70
2022/12/23 11:12:07;;;;;;;;;;;7.80;99.90;;;;;;4954727;28;208694;-70
2022/12/23 11:14:37;;;;;;;;;;;7.80;99.90;;;;;;5017404;28;19922;-70
2022/12/23 11:17:04;;;;;;;;;;;7.90;99.90;;;;;;4979511;28;208352;-69
2022/12/23 11:19:30;;;;;;;;;;;7.90;99.90;;;;;;5060981;28;20434;-70
2022/12/23 11:21:57;;;;;;;;;;;7.90;99.90;;;;;;4993784;28;206706;-69
2022/12/23 11:24:24;;;;;;;;;;;7.90;99.90;;;;;;5082280;28;20472;-69
2022/12/23 11:27:00;;;;;;;;;;;7.90;99.90;;;;;;4978186;28;183170;-70
2022/12/23 11:29:37;;;;;;;;;;;7.90;99.90;;;;;;5086050;28;20689;-70
2022/12/23 11:32:14;;;;;;;;;;;7.90;99.90;;;;;;4978538;28;199248;-69
2022/12/23 11:34:43;;;;;;;;;;;7.90;99.90;;;;;;5061007;28;19928;-70
2022/12/23 11:37:21;;;;;;;;;;;7.90;99.90;;;;;;4993186;28;213722;-70
2022/12/23 11:39:48;;;;;;;;;;;7.80;99.90;;;;;;5038329;28;19925;-68
2022/12/23 11:42:19;;;;;;;;;;;7.90;99.90;;;;;;4982580;28;209098;-69
2022/12/23 11:44:46;;;;;;;;;;;7.90;99.90;;;;;;5055653;28;19928;-70
2022/12/23 11:47:22;;;;;;;;;;;7.90;99.90;;;;;;5005749;28;170253;-69
2022/12/23 11:49:56;;;;;;;;;;;7.90;99.90;;;;;;5057685;28;19939;-70
2022/12/23 11:52:23;;;;;;;;;;;8.00;99.90;;;;;;5002090;28;209049;-70
2022/12/23 11:54:52;;;;;;;;;;;8.00;99.90;;;;;;5057141;28;19920;-70
2022/12/23 11:57:20;;;;;;;;;;;8.00;99.90;;;;;;5034464;28;205014;-70
2022/12/23 11:59:50;;;;;;;;;;;8.00;99.90;;;;;;5056917;28;19928;-70
2022/12/23 12:02:20;;;;;;;;;;;8.00;99.90;;;;;;5009323;28;221990;-71
2022/12/23 12:04:56;;;;;;;;;;;8.00;99.90;;;;;;5052933;28;19933;-70
2022/12/23 12:07:22;;;;;;;;;;;8.10;99.90;;;;;;4976725;28;209624;-71
2022/12/23 12:09:50;;;;;;;;;;;8.10;99.90;;;;;;5087072;28;19936;-70
2022/12/23 12:12:18;;;;;;;;;;;8.20;99.90;;;;;;5011769;28;174339;-71
2022/12/23 12:14:46;;;;;;;;;;;8.20;99.90;;;;;;5061137;28;19950;-70
2022/12/23 12:17:15;;;;;;;;;;;8.20;99.90;;;;;;5013161;28;168972;-71
2022/12/23 12:20:03;;;;;;;;;;;8.20;99.90;;;;;;5060822;28;19936;-71
2022/12/23 12:22:32;;;;;;;;;;;8.20;99.90;;;;;;4989677;28;207447;-70
2022/12/23 12:25:03;;;;;;;;;;;8.20;99.90;;;;;;5038624;28;214351;-71
2022/12/23 12:27:34;;;;;;;;;;;8.20;99.90;;;;;;4996540;28;19939;-71
2022/12/23 12:30:03;;;;;;;;;;;8.20;99.90;;;;;;5036358;28;208080;-71
2022/12/23 12:32:29;;;;;;;;;;;8.20;99.90;;;;;;5022982;28;19935;-69
2022/12/23 12:34:57;;;;;;;;;;;8.20;99.90;;;;;;5051730;28;207552;-70
2022/12/23 12:37:46;;;;;;;;;;;8.20;99.90;;;;;;4994919;28;210718;-70
2022/12/23 12:40:24;;;;;;;;;;;8.20;99.90;;;;;;5036133;28;207230;-70
2022/12/23 12:42:53;;;;;;;;;;;8.20;99.90;;;;;;5041818;28;19932;-71
2022/12/23 12:45:23;;;;;;;;;;;8.20;99.90;;;;;;5003270;28;160240;-71
2022/12/23 12:47:54;;;;;;;;;;;8.20;99.90;;;;;;5047883;28;19917;-71
2022/12/23 12:50:30;;;;;;;;;;;8.20;99.90;;;;;;5017671;28;155808;-71
2022/12/23 12:52:59;;;;;;;;;;;8.20;99.90;;;;;;5043842;28;19932;-70
2022/12/23 12:55:27;;;;;;;;;;;8.20;99.90;;;;;;5007362;28;209284;-70
2022/12/23 12:57:53;;;;;;;;;;;8.10;99.90;;;;;;5034710;28;19943;-70
2022/12/23 13:00:20;;;;;;;;;;;8.10;99.90;;;;;;5010033;28;205958;-70
2022/12/23 13:03:16;;;;;;;;;;;8.10;99.90;;;;;;5046217;28;19931;-70
2022/12/23 13:05:51;;;;;;;;;;;8.10;99.90;;;;;;4981746;28;123537;-70
2022/12/23 13:08:25;;;;;;;;;;;8.10;99.90;;;;;;5030210;28;19953;-70
2022/12/23 13:10:59;;;;;;;;;;;8.10;99.90;;;;;;5004294;28;99079;-70
2022/12/23 13:13:25;;;;;;;;;;;8.10;99.90;;;;;;5046313;28;19920;-70
2022/12/23 13:16:06;;;;;;;;;;;8.10;99.90;;;;;;5001020;28;209954;-70
2022/12/23 13:18:47;;;;;;;;;;;8.10;99.90;;;;;;5046131;28;19932;-70
2022/12/23 13:21:33;;;;;;;;;;;8.10;99.90;;;;;;4991211;28;207045;-70
2022/12/23 13:24:04;;;;;;;;;;;8.10;99.90;;;;;;5035479;28;19924;-71
2022/12/23 13:26:51;;;;;;;;;;;8.00;99.90;;;;;;4986344;28;207518;-70
2022/12/23 13:29:28;;;;;;;;;;;8.00;99.90;;;;;;5038432;28;19963;-70
2022/12/23 13:32:00;;;;;;;;;;;8.00;99.90;;;;;;4976631;28;202674;-70
2022/12/23 13:34:28;;;;;;;;;;;8.00;99.90;;;;;;5058458;28;20413;-70
2022/12/23 13:37:09;;;;;;;;;;;8.00;99.90;;;;;;4986146;28;130415;-70
2022/12/23 13:39:49;;;;;;;;;;;8.00;99.90;;;;;;5047835;28;19927;-70
2022/12/23 13:42:35;;;;;;;;;;;7.90;99.90;;;;;;5006753;28;201287;-71
2022/12/23 13:45:02;;;;;;;;;;;7.90;99.90;;;;;;5020438;28;231349;-71
2022/12/23 13:47:31;;;;;;;;;;;7.90;99.90;;;;;;5043287;28;206598;-70
2022/12/23 13:49:57;;;;;;;;;;;7.90;99.90;;;;;;5037777;28;213171;-70
2022/12/23 13:52:37;;;;;;;;;;;7.90;99.90;;;;;;4997756;28;206166;-70
2022/12/23 13:55:21;;;;;;;;;;;7.90;99.90;;;;;;5017692;28;209654;-70
2022/12/23 13:58:04;;;;;;;;;;;7.90;99.90;;;;;;5043669;28;20297;-71
2022/12/23 14:00:31;;;;;;;;;;;7.90;99.90;;;;;;5002830;28;208358;-72
2022/12/23 14:03:00;;;;;;;;;;;7.90;99.90;;;;;;5013358;28;19928;-70
2022/12/23 14:05:30;;;;;;;;;;;7.80;99.90;;;;;;4979313;28;206265;-71
2022/12/23 14:08:01;;;;;;;;;;;7.80;99.90;;;;;;5016783;28;19927;-72
2022/12/23 14:10:27;;;;;;;;;;;7.80;99.90;;;;;;5032333;28;202009;-71
2022/12/23 14:12:58;;;;;;;;;;;7.80;99.90;;;;;;5029130;28;20353;-71
2022/12/23 14:15:26;;;;;;;;;;;7.80;99.90;;;;;;5002949;28;205647;-72
2022/12/23 14:18:11;;;;;;;;;;;7.80;99.90;;;;;;5032044;28;19925;-72
2022/12/23 14:21:03;;;;;;;;;;;7.80;99.90;;;;;;5014907;28;136149;-71
2022/12/23 14:23:35;;;;;;;;;;;7.80;99.90;;;;;;5035444;28;19934;-72
2022/12/23 14:26:20;;;;;;;;;;;7.80;99.90;;;;;;5025814;28;120875;-71
2022/12/23 14:28:49;;;;;;;;;;;7.80;99.90;;;;;;5048750;28;20415;-71
2022/12/23 14:31:27;;;;;;;;;;;7.70;99.90;;;;;;5008770;28;206045;-70
2022/12/23 14:34:00;;;;;;;;;;;7.70;99.90;;;;;;5049690;28;19936;-70
2022/12/23 14:36:27;;;;;;;;;;;7.70;99.90;;;;;;5004572;28;207238;-69
2022/12/23 14:39:11;;;;;;;;;;;7.70;99.90;;;;;;5036343;28;19928;-69
2022/12/23 14:41:42;;;;;;;;;;;7.70;99.90;;;;;;4989518;28;216333;-69
2022/12/23 14:44:19;;;;;;;;;;;7.70;99.90;;;;;;5051468;28;19943;-70
2022/12/23 14:46:45;;;;;;;;;;;7.70;99.90;;;;;;5000396;28;118968;-70
2022/12/23 14:49:21;;;;;;;;;;;7.70;99.90;;;;;;5052288;28;19934;-70
2022/12/23 14:51:49;;;;;;;;;;;7.70;99.90;;;;;;5011241;28;144083;-71
2022/12/23 14:54:15;;;;;;;;;;;7.70;99.90;;;;;;5023976;28;19925;-71
2022/12/23 14:56:56;;;;;;;;;;;7.60;99.90;;;;;;4990683;28;207269;-71
2022/12/23 14:59:41;;;;;;;;;;;7.70;99.90;;;;;;5084698;28;19925;-71
2022/12/23 15:02:13;;;;;;;;;;;7.70;99.90;;;;;;4992659;28;212446;-72